createdAt,value
2023-05-14T00:00:55.084Z,16.50
2023-05-14T00:03:24.295Z,16.29
2023-05-14T00:05:51.248Z,16.08
2023-05-14T00:08:18.167Z,16.02
2023-05-14T00:10:53.051Z,16.00
2023-05-14T00:13:19.944Z,15.95
2023-05-14T00:15:46.880Z,15.84
2023-05-14T00:18:13.901Z,16.05
2023-05-14T00:20:43.963Z,16.18
2023-05-14T00:23:11.710Z,15.97
2023-05-14T00:25:41.743Z,16.01
2023-05-14T00:28:08.729Z,15.93
2023-05-14T00:30:37.926Z,15.91
2023-05-14T00:33:04.921Z,15.82
2023-05-14T00:35:38.088Z,15.76
2023-05-14T00:38:08.043Z,15.75
2023-05-14T00:40:46.197Z,15.73
2023-05-14T00:43:13.193Z,15.65
2023-05-14T00:45:40.235Z,15.56
2023-05-14T00:48:07.477Z,15.53
2023-05-14T00:50:34.997Z,15.63
2023-05-14T00:53:16.162Z,15.57
2023-05-14T00:55:45.924Z,15.48
2023-05-14T00:58:14.663Z,15.60
2023-05-14T01:00:42.536Z,15.72
2023-05-14T01:03:11.800Z,15.61
2023-05-14T01:06:25.002Z,15.65
2023-05-14T01:09:20.692Z,15.79
2023-05-14T01:12:06.676Z,15.56
2023-05-14T01:14:36.591Z,15.64
2023-05-14T01:17:08.280Z,15.59
2023-05-14T01:19:48.710Z,15.58
2023-05-14T01:22:16.681Z,15.53
2023-05-14T01:24:46.649Z,15.49
2023-05-14T01:27:19.655Z,15.62
2023-05-14T01:30:06.733Z,15.79
2023-05-14T01:32:38.320Z,15.81
2023-05-14T01:35:08.839Z,15.79
2023-05-14T01:37:37.234Z,15.83
2023-05-14T01:40:09.824Z,15.60
2023-05-14T01:42:37.898Z,15.62
2023-05-14T01:45:09.292Z,15.57
2023-05-14T01:47:36.421Z,15.56
2023-05-14T01:50:03.581Z,15.49
2023-05-14T01:52:30.751Z,15.39
2023-05-14T01:54:58.756Z,15.39
2023-05-14T01:57:26.020Z,15.50
2023-05-14T01:59:53.026Z,15.37
2023-05-14T02:02:20.580Z,15.31
2023-05-14T02:04:47.664Z,15.61
2023-05-14T02:07:14.649Z,15.60
2023-05-14T02:09:41.848Z,15.48
2023-05-14T02:12:10.905Z,15.29
2023-05-14T02:14:38.075Z,15.37
2023-05-14T02:17:07.917Z,15.39
2023-05-14T02:19:34.978Z,15.26
2023-05-14T02:22:02.058Z,15.53
2023-05-14T02:24:29.168Z,15.48
2023-05-14T02:26:56.398Z,15.32
2023-05-14T02:29:23.464Z,15.07
2023-05-14T02:31:50.565Z,14.93
2023-05-14T02:34:17.663Z,15.07
2023-05-14T02:36:48.776Z,14.98
2023-05-14T02:39:16.987Z,14.88
2023-05-14T02:41:44.169Z,14.87
2023-05-14T02:44:11.249Z,14.99
2023-05-14T02:46:38.275Z,14.86
2023-05-14T02:49:05.417Z,14.92
2023-05-14T02:51:36.100Z,14.95
2023-05-14T02:54:05.904Z,15.01
2023-05-14T02:56:32.956Z,14.99
2023-05-14T02:59:02.890Z,14.83
2023-05-14T03:01:30.839Z,15.03
2023-05-14T03:04:06.684Z,14.91
2023-05-14T03:06:33.682Z,14.86
2023-05-14T03:09:00.892Z,14.89
2023-05-14T03:11:28.336Z,14.88
2023-05-14T03:13:55.382Z,15.00
2023-05-14T03:16:23.414Z,14.98
2023-05-14T03:19:02.015Z,15.06
2023-05-14T03:21:29.273Z,14.92
2023-05-14T03:23:56.436Z,15.04
2023-05-14T03:26:23.584Z,14.98
2023-05-14T03:28:51.882Z,14.81
2023-05-14T03:31:22.559Z,14.73
2023-05-14T03:33:49.722Z,14.86
2023-05-14T03:36:16.730Z,14.79
2023-05-14T03:38:43.673Z,14.77
2023-05-14T03:41:10.699Z,14.80
2023-05-14T03:43:37.742Z,14.58
2023-05-14T03:46:04.752Z,14.60
2023-05-14T03:48:31.879Z,14.65
2023-05-14T03:50:58.920Z,15.06
2023-05-14T03:53:25.963Z,15.25
2023-05-14T03:55:53.053Z,15.26
2023-05-14T03:58:20.042Z,15.50
2023-05-14T04:00:47.306Z,15.83
2023-05-14T04:03:17.691Z,15.56
2023-05-14T04:05:44.878Z,15.32
2023-05-14T04:08:11.840Z,15.11
2023-05-14T04:10:38.906Z,15.13
2023-05-14T04:13:06.717Z,14.89
2023-05-14T04:15:39.550Z,14.81
2023-05-14T04:18:12.717Z,14.90
2023-05-14T04:20:42.816Z,14.87
2023-05-14T04:23:09.828Z,14.73
2023-05-14T04:25:36.830Z,15.04
2023-05-14T04:28:06.735Z,15.00
2023-05-14T04:30:34.002Z,15.01
2023-05-14T04:33:00.997Z,14.98
2023-05-14T04:35:28.112Z,14.75
2023-05-14T04:37:55.231Z,14.62
2023-05-14T04:40:26.779Z,14.74
2023-05-14T04:42:55.824Z,14.65
2023-05-14T04:45:34.311Z,14.70
2023-05-14T04:48:03.515Z,14.88
2023-05-14T04:50:30.458Z,14.84
2023-05-14T04:52:57.825Z,14.93
2023-05-14T04:55:28.032Z,14.87
2023-05-14T04:57:55.585Z,14.83
2023-05-14T05:00:23.572Z,14.90
2023-05-14T05:02:51.977Z,14.90
2023-05-14T05:05:19.120Z,14.76
2023-05-14T05:07:49.086Z,14.62
2023-05-14T05:10:16.040Z,14.49
2023-05-14T05:12:43.057Z,14.43
2023-05-14T05:15:11.690Z,14.35
2023-05-14T05:17:42.638Z,14.38
2023-05-14T05:20:15.075Z,14.44
2023-05-14T05:22:41.929Z,14.59
2023-05-14T05:25:14.214Z,14.71
2023-05-14T05:27:44.537Z,14.60
2023-05-14T05:30:12.426Z,14.76
2023-05-14T05:32:42.147Z,14.88
2023-05-14T05:35:10.357Z,14.78
2023-05-14T05:37:38.610Z,14.84
2023-05-14T05:40:06.862Z,14.74
2023-05-14T05:42:35.138Z,14.61
2023-05-14T05:45:01.999Z,14.44
2023-05-14T05:47:31.834Z,14.48
2023-05-14T05:49:58.732Z,14.34
2023-05-14T05:52:28.816Z,14.18
2023-05-14T05:54:57.068Z,14.35
2023-05-14T05:57:27.705Z,14.39
2023-05-14T05:59:54.722Z,14.30
2023-05-14T06:02:22.088Z,14.24
2023-05-14T06:04:49.110Z,14.24
2023-05-14T06:07:16.105Z,14.47
2023-05-14T06:09:46.254Z,14.43
2023-05-14T06:12:17.691Z,14.43
2023-05-14T06:14:45.339Z,14.41
2023-05-14T06:17:12.320Z,14.52
2023-05-14T06:19:39.442Z,14.44
2023-05-14T06:22:16.918Z,14.52
2023-05-14T06:24:44.402Z,14.47
2023-05-14T06:27:11.967Z,14.62
2023-05-14T06:29:40.303Z,14.68
2023-05-14T06:32:10.802Z,14.73
2023-05-14T06:34:37.774Z,14.90
2023-05-14T06:37:07.767Z,15.03
2023-05-14T06:39:34.825Z,14.92
2023-05-14T06:42:03.153Z,14.83
2023-05-14T06:44:30.188Z,14.63
2023-05-14T06:46:59.006Z,14.68
2023-05-14T06:49:26.546Z,14.68
2023-05-14T06:51:56.062Z,14.89
2023-05-14T06:54:31.965Z,15.22
2023-05-14T06:56:59.568Z,14.90
2023-05-14T06:59:27.469Z,14.82
2023-05-14T07:01:54.639Z,14.63
2023-05-14T07:04:24.581Z,14.84
2023-05-14T07:06:52.267Z,14.98
2023-05-14T07:09:19.334Z,14.83
2023-05-14T07:11:53.846Z,14.96
2023-05-14T07:14:21.023Z,14.87
2023-05-14T07:16:55.559Z,14.84
2023-05-14T07:19:22.757Z,14.76
2023-05-14T07:21:53.249Z,14.67
2023-05-14T07:24:21.304Z,14.85
2023-05-14T07:26:48.591Z,14.81
2023-05-14T07:29:15.663Z,14.81
2023-05-14T07:31:43.439Z,15.05
2023-05-14T07:34:13.885Z,15.26
2023-05-14T07:36:42.039Z,15.35
2023-05-14T07:39:09.615Z,15.17
2023-05-14T07:41:36.658Z,15.21
2023-05-14T07:44:03.939Z,15.28
2023-05-14T07:46:31.728Z,15.24
2023-05-14T07:48:59.261Z,14.99
2023-05-14T07:51:29.782Z,15.10
2023-05-14T07:53:56.908Z,15.18
2023-05-14T07:56:23.979Z,15.35
2023-05-14T07:58:55.464Z,15.37
2023-05-14T08:01:23.508Z,15.30
2023-05-14T08:04:00.604Z,15.34
2023-05-14T08:06:29.303Z,15.21
2023-05-14T08:08:56.697Z,15.32
2023-05-14T08:11:23.827Z,15.31
2023-05-14T08:14:03.749Z,15.36
2023-05-14T08:16:31.156Z,15.37
2023-05-14T08:19:08.076Z,15.33
2023-05-14T08:21:35.133Z,15.38
2023-05-14T08:24:02.462Z,15.48
2023-05-14T08:26:29.562Z,15.56
2023-05-14T08:28:56.652Z,15.52
2023-05-14T08:31:23.838Z,15.48
2023-05-14T08:33:51.416Z,15.49
2023-05-14T08:36:18.500Z,15.61
2023-05-14T08:38:48.973Z,15.64
2023-05-14T08:41:20.978Z,15.59
2023-05-14T08:43:53.956Z,15.58
2023-05-14T08:46:25.058Z,15.62
2023-05-14T08:49:09.622Z,15.71
2023-05-14T08:51:37.072Z,15.87
2023-05-14T08:54:07.888Z,16.02
2023-05-14T08:56:35.217Z,15.93
2023-05-14T08:59:02.313Z,16.02
2023-05-14T09:04:35.148Z,16.03
2023-05-14T09:07:03.058Z,16.15
2023-05-14T09:09:34.298Z,16.09
2023-05-14T09:12:09.443Z,16.31
2023-05-14T09:14:36.821Z,16.42
2023-05-14T09:17:04.107Z,16.45
2023-05-14T09:19:31.596Z,16.27
2023-05-14T09:22:05.236Z,16.13
2023-05-14T09:24:34.669Z,16.22
2023-05-14T09:27:02.420Z,16.42
2023-05-14T09:29:32.642Z,16.25
2023-05-14T09:32:00.869Z,16.37
2023-05-14T09:34:30.820Z,16.49
2023-05-14T09:37:00.556Z,16.46
2023-05-14T09:39:28.974Z,16.60
2023-05-14T09:41:56.744Z,16.55
2023-05-14T09:44:32.869Z,16.78
2023-05-14T09:47:00.901Z,16.82
2023-05-14T09:49:28.603Z,16.83
2023-05-14T09:51:57.290Z,16.72
2023-05-14T09:54:27.661Z,16.61
2023-05-14T09:56:55.923Z,16.57
2023-05-14T09:59:22.939Z,16.55
2023-05-14T10:01:55.064Z,16.26
2023-05-14T10:04:26.653Z,16.05
2023-05-14T10:06:59.995Z,16.11
2023-05-14T10:09:29.966Z,16.20
2023-05-14T10:12:01.487Z,16.09
2023-05-14T10:14:46.268Z,16.19
2023-05-14T10:17:18.781Z,16.26
2023-05-14T10:19:54.148Z,16.22
2023-05-14T10:22:24.198Z,16.04
2023-05-14T10:24:53.573Z,15.98
2023-05-14T10:27:23.479Z,15.90
2023-05-14T10:29:57.386Z,15.94
2023-05-14T10:32:27.188Z,15.84
2023-05-14T10:35:06.365Z,15.73
2023-05-14T10:37:33.650Z,15.65
2023-05-14T10:40:05.289Z,15.56
2023-05-14T10:42:43.791Z,15.45
2023-05-14T10:45:13.281Z,15.53
2023-05-14T10:47:46.876Z,15.51
2023-05-14T10:50:21.120Z,15.48
2023-05-14T10:52:50.619Z,15.51
2023-05-14T10:55:17.644Z,15.59
2023-05-14T10:57:47.074Z,15.44
2023-05-14T11:00:16.884Z,15.55
2023-05-14T11:02:45.209Z,15.60
2023-05-14T11:05:22.073Z,15.83
2023-05-14T11:07:50.394Z,15.76
2023-05-14T11:10:29.325Z,15.78
2023-05-14T11:12:57.501Z,15.67
2023-05-14T11:15:30.957Z,15.71
2023-05-14T11:17:58.133Z,15.71
2023-05-14T11:20:25.502Z,15.59
2023-05-14T11:22:53.026Z,15.63
2023-05-14T11:25:20.909Z,15.87
2023-05-14T11:27:48.308Z,15.94
2023-05-14T11:30:21.440Z,15.76
2023-05-14T11:33:00.594Z,15.72
2023-05-14T11:35:28.817Z,15.80
2023-05-14T11:37:55.929Z,15.65
2023-05-14T11:40:24.808Z,15.61
2023-05-14T11:42:55.373Z,15.78
2023-05-14T11:45:27.355Z,15.74
2023-05-14T11:47:55.221Z,15.71
2023-05-14T11:50:25.755Z,15.69
2023-05-14T11:52:57.318Z,15.77
2023-05-14T11:55:28.696Z,15.86
2023-05-14T11:57:55.747Z,15.96
2023-05-14T12:00:28.579Z,16.09
2023-05-14T12:02:58.440Z,16.19
2023-05-14T12:05:29.965Z,15.95
2023-05-14T12:07:56.864Z,16.14
2023-05-14T12:10:24.252Z,16.15
2023-05-14T12:12:52.328Z,16.08
2023-05-14T12:15:19.567Z,16.05
2023-05-14T12:17:54.236Z,16.01
2023-05-14T12:20:21.199Z,15.81
2023-05-14T12:22:51.210Z,15.83
2023-05-14T12:25:27.227Z,15.75
2023-05-14T12:27:54.086Z,15.70
2023-05-14T12:30:23.710Z,15.58
2023-05-14T12:32:57.841Z,15.46
2023-05-14T12:35:25.028Z,15.58
2023-05-14T12:37:56.690Z,15.60
2023-05-14T12:40:26.414Z,15.54
2023-05-14T12:42:56.793Z,15.44
2023-05-14T12:45:24.157Z,15.36
2023-05-14T12:47:51.518Z,15.41
2023-05-14T12:50:27.069Z,15.34
2023-05-14T12:52:58.153Z,15.31
2023-05-14T12:55:32.451Z,15.44
2023-05-14T12:57:59.698Z,15.52
2023-05-14T13:00:29.870Z,15.46
2023-05-14T13:03:02.576Z,15.61
2023-05-14T13:05:29.823Z,15.56
2023-05-14T13:08:04.255Z,15.63
2023-05-14T13:10:31.199Z,15.63
2023-05-14T13:12:58.556Z,15.66
2023-05-14T13:15:25.900Z,15.76
2023-05-14T13:17:53.178Z,15.72
2023-05-14T13:20:27.740Z,15.65
2023-05-14T13:22:54.645Z,15.87
2023-05-14T13:25:30.691Z,15.80
2023-05-14T13:27:57.635Z,15.76
2023-05-14T13:30:25.269Z,15.81
2023-05-14T13:32:52.403Z,15.88
2023-05-14T13:35:19.499Z,15.90
2023-05-14T13:37:51.204Z,16.15
2023-05-14T13:40:23.033Z,16.21
2023-05-14T13:42:52.254Z,16.22
2023-05-14T13:45:19.843Z,16.25
2023-05-14T13:47:47.225Z,16.25
2023-05-14T13:50:16.880Z,16.47
2023-05-14T13:52:44.810Z,16.45
2023-05-14T13:55:11.933Z,16.51
2023-05-14T13:57:41.859Z,16.57
2023-05-14T14:00:09.781Z,16.57
2023-05-14T14:02:37.219Z,16.57
2023-05-14T14:05:08.326Z,16.66
2023-05-14T14:07:36.509Z,16.71
2023-05-14T14:10:03.413Z,16.88
2023-05-14T14:12:30.406Z,16.76
2023-05-14T14:15:00.169Z,16.83
2023-05-14T14:17:30.173Z,16.83
2023-05-14T14:19:58.987Z,16.73
2023-05-14T14:22:29.086Z,16.70
2023-05-14T14:24:56.386Z,16.75
2023-05-14T14:27:25.660Z,16.60
2023-05-14T14:29:52.864Z,16.72
2023-05-14T14:32:20.754Z,16.87
2023-05-14T14:34:51.655Z,16.89
2023-05-14T14:37:21.170Z,17.03
2023-05-14T14:39:53.089Z,17.15
2023-05-14T14:42:24.161Z,17.25
2023-05-14T14:44:51.165Z,17.28
2023-05-14T14:47:20.937Z,17.25
2023-05-14T14:49:47.830Z,17.28
2023-05-14T14:52:20.558Z,17.22
2023-05-14T14:54:52.662Z,17.22
2023-05-14T14:57:22.709Z,17.31
2023-05-14T14:59:56.570Z,17.17
2023-05-14T15:02:26.247Z,17.11
2023-05-14T15:04:55.382Z,17.12
2023-05-14T15:07:23.620Z,17.13
2023-05-14T15:09:51.109Z,17.07
2023-05-14T15:12:21.300Z,17.01
2023-05-14T15:14:48.691Z,16.90
2023-05-14T15:17:15.834Z,16.95
2023-05-14T15:19:43.462Z,17.12
2023-05-14T15:22:11.338Z,16.95
2023-05-14T15:24:41.763Z,16.91
2023-05-14T15:27:09.793Z,16.82
2023-05-14T15:29:41.454Z,16.92
2023-05-14T15:32:11.292Z,17.02
2023-05-14T15:34:43.197Z,17.10
2023-05-14T15:37:19.299Z,17.19
2023-05-14T15:39:48.143Z,17.32
2023-05-14T15:42:16.465Z,17.32
2023-05-14T15:44:48.477Z,17.46
2023-05-14T15:47:18.666Z,17.39
2023-05-14T15:49:48.350Z,17.32
2023-05-14T15:52:16.999Z,17.40
2023-05-14T15:54:47.113Z,17.41
2023-05-14T15:57:14.370Z,17.45
2023-05-14T15:59:41.830Z,17.53
2023-05-14T16:02:12.001Z,17.47
2023-05-14T16:04:39.215Z,17.42
2023-05-14T16:07:10.001Z,17.55
2023-05-14T16:09:38.442Z,18.44
2023-05-14T16:12:06.337Z,19.01
2023-05-14T16:14:41.837Z,18.65
2023-05-14T16:17:10.108Z,18.44
2023-05-14T16:19:39.453Z,18.30
2023-05-14T16:22:11.774Z,18.13
2023-05-14T16:24:38.666Z,17.87
2023-05-14T16:27:10.535Z,17.87
2023-05-14T16:29:39.888Z,17.76
2023-05-14T16:32:07.317Z,17.74
2023-05-14T16:34:34.314Z,17.89
2023-05-14T16:37:06.714Z,17.84
2023-05-14T16:39:39.327Z,17.79
2023-05-14T16:42:08.168Z,17.72
2023-05-14T16:44:35.182Z,17.91
2023-05-14T16:47:02.472Z,17.68
2023-05-14T16:49:29.945Z,17.74
2023-05-14T16:51:56.979Z,17.66
2023-05-14T16:54:25.775Z,17.58
2023-05-14T16:56:55.209Z,17.79
2023-05-14T16:59:34.198Z,17.87
2023-05-14T17:02:01.254Z,17.97
2023-05-14T17:04:28.426Z,17.99
2023-05-14T17:07:08.944Z,17.63
2023-05-14T17:09:38.967Z,17.46
2023-05-14T17:12:09.982Z,17.49
2023-05-14T17:14:43.820Z,17.46
2023-05-14T17:17:10.880Z,17.26
2023-05-14T17:19:41.161Z,17.29
2023-05-14T17:22:09.319Z,17.18
2023-05-14T17:24:39.726Z,17.31
2023-05-14T17:27:15.958Z,17.38
2023-05-14T17:29:44.695Z,17.34
2023-05-14T17:32:11.917Z,17.23
2023-05-14T17:34:39.922Z,17.26
2023-05-14T17:37:07.215Z,17.19
2023-05-14T17:39:34.227Z,16.93
2023-05-14T17:42:04.528Z,16.80
2023-05-14T17:44:31.703Z,17.29
2023-05-14T17:47:00.944Z,17.42
2023-05-14T17:49:31.561Z,17.36
2023-05-14T17:51:58.531Z,17.09
2023-05-14T17:54:27.343Z,17.25
2023-05-14T17:56:55.025Z,17.18
2023-05-14T17:59:24.382Z,17.14
2023-05-14T18:02:00.576Z,17.22
2023-05-14T18:04:31.994Z,17.15
2023-05-14T18:07:03.986Z,17.39
2023-05-14T18:09:32.428Z,17.49
2023-05-14T18:12:00.312Z,17.18
2023-05-14T18:14:32.297Z,16.93
2023-05-14T18:16:59.756Z,17.14
2023-05-14T18:19:26.865Z,17.36
2023-05-14T18:21:57.617Z,17.18
2023-05-14T18:24:32.228Z,17.45
2023-05-14T18:27:00.303Z,17.20
2023-05-14T18:29:30.527Z,16.92
2023-05-14T18:31:57.563Z,16.77
2023-05-14T18:34:24.726Z,16.81
2023-05-14T18:36:51.684Z,17.06
2023-05-14T18:39:22.301Z,17.42
2023-05-14T18:41:51.555Z,17.63
2023-05-14T18:44:25.109Z,17.28
2023-05-14T18:46:52.663Z,16.97
2023-05-14T18:49:19.642Z,16.75
2023-05-14T18:51:52.895Z,16.47
2023-05-14T18:54:23.152Z,16.34
2023-05-14T18:57:06.570Z,16.44
2023-05-14T18:59:37.821Z,16.41
2023-05-14T19:02:09.958Z,16.40
2023-05-14T19:04:51.875Z,16.26
2023-05-14T19:07:24.478Z,16.21
2023-05-14T19:09:53.735Z,16.23
2023-05-14T19:12:21.308Z,16.21
2023-05-14T19:14:49.072Z,16.10
2023-05-14T19:17:26.721Z,16.02
2023-05-14T19:19:56.062Z,15.96
2023-05-14T19:22:24.473Z,15.87
2023-05-14T19:24:53.861Z,15.85
2023-05-14T19:27:26.735Z,15.81
2023-05-14T19:29:55.946Z,15.83
2023-05-14T19:32:24.419Z,16.12
2023-05-14T19:34:59.210Z,16.13
2023-05-14T19:37:28.181Z,15.98
2023-05-14T19:39:55.748Z,15.98
2023-05-14T19:42:26.470Z,16.12
2023-05-14T19:44:59.345Z,15.94
2023-05-14T19:47:34.629Z,15.90
2023-05-14T19:50:01.937Z,15.94
2023-05-14T19:52:31.893Z,15.84
2023-05-14T19:55:03.676Z,16.09
2023-05-14T19:57:31.623Z,16.13
2023-05-14T20:00:10.203Z,16.23
2023-05-14T20:02:41.299Z,16.40
2023-05-14T20:05:09.573Z,16.24
2023-05-14T20:07:44.151Z,16.27
2023-05-14T20:10:11.897Z,16.00
2023-05-14T20:12:42.833Z,16.05
2023-05-14T20:15:14.942Z,16.17
2023-05-14T20:17:43.331Z,16.11
2023-05-14T20:20:18.423Z,16.06
2023-05-14T20:22:47.510Z,16.10
2023-05-14T20:25:14.722Z,16.20
2023-05-14T20:27:44.699Z,16.01
2023-05-14T20:30:14.348Z,15.84
2023-05-14T20:32:42.204Z,15.74
2023-05-14T20:35:13.925Z,15.71
2023-05-14T20:38:06.917Z,15.99
2023-05-14T20:40:37.871Z,16.44
2023-05-14T20:43:05.757Z,16.51
2023-05-14T20:45:35.532Z,16.49
2023-05-14T20:48:14.981Z,16.45
2023-05-14T20:50:43.163Z,16.12
2023-05-14T20:53:21.260Z,16.07
2023-05-14T20:55:49.308Z,15.99
2023-05-14T20:58:17.009Z,15.89
2023-05-14T21:00:48.206Z,15.80
2023-05-14T21:03:19.943Z,15.80
2023-05-14T21:05:48.932Z,15.67
2023-05-14T21:08:17.216Z,15.76
2023-05-14T21:10:51.565Z,15.71
2023-05-14T21:13:20.887Z,15.63
2023-05-14T21:15:50.818Z,15.65
2023-05-14T21:18:23.578Z,15.66
2023-05-14T21:20:59.258Z,15.73
2023-05-14T21:23:44.180Z,15.69
2023-05-14T21:26:24.812Z,15.49
2023-05-14T21:28:52.031Z,15.54
2023-05-14T21:31:21.190Z,15.53
2023-05-14T21:33:50.401Z,15.52
2023-05-14T21:36:27.135Z,15.56
2023-05-14T21:38:54.362Z,15.64
2023-05-14T21:41:30.686Z,15.67
2023-05-14T21:43:58.195Z,15.64
2023-05-14T21:46:33.300Z,15.83
2023-05-14T21:49:02.290Z,15.66
2023-05-14T21:51:29.803Z,15.60
2023-05-14T21:53:59.006Z,15.54
2023-05-14T21:56:33.045Z,15.46
2023-05-14T21:59:02.857Z,15.39
2023-05-14T22:01:46.025Z,15.41
2023-05-14T22:04:34.112Z,15.42
2023-05-14T22:07:02.279Z,15.39
2023-05-14T22:09:30.795Z,15.54
2023-05-14T22:12:12.891Z,15.65
2023-05-14T22:14:41.546Z,15.65
2023-05-14T22:17:14.204Z,15.70
2023-05-14T22:19:41.275Z,15.71
2023-05-14T22:22:12.621Z,15.62
2023-05-14T22:24:44.110Z,15.90
2023-05-14T22:27:11.315Z,15.93
2023-05-14T22:29:41.894Z,16.15
2023-05-14T22:32:17.554Z,16.05
2023-05-14T22:34:57.132Z,15.91
2023-05-14T22:37:24.047Z,15.80
2023-05-14T22:39:51.069Z,15.75
2023-05-14T22:42:18.171Z,15.86
2023-05-14T22:44:52.179Z,16.17
2023-05-14T22:47:22.367Z,16.00
2023-05-14T22:49:52.523Z,15.84
2023-05-14T22:52:19.776Z,16.00
2023-05-14T22:54:53.404Z,15.88
2023-05-14T22:57:23.162Z,15.70
2023-05-14T22:59:50.073Z,15.59
2023-05-14T23:02:17.405Z,15.66
2023-05-14T23:04:46.664Z,15.65
2023-05-14T23:07:16.510Z,15.64
2023-05-14T23:09:44.309Z,15.61
2023-05-14T23:12:11.176Z,15.61
2023-05-14T23:14:38.350Z,15.58
2023-05-14T23:17:05.642Z,15.70
2023-05-14T23:19:32.612Z,15.65
2023-05-14T23:22:02.700Z,15.75
2023-05-14T23:24:30.281Z,15.64
2023-05-14T23:26:57.262Z,15.51
2023-05-14T23:29:28.865Z,15.58
2023-05-14T23:31:55.860Z,15.61
2023-05-14T23:34:25.788Z,15.53
2023-05-14T23:36:55.725Z,15.53
2023-05-14T23:39:24.432Z,15.54
2023-05-14T23:42:01.934Z,15.70
2023-05-14T23:44:32.004Z,15.61
2023-05-14T23:46:59.056Z,15.49
2023-05-14T23:49:26.561Z,15.48
2023-05-14T23:51:53.462Z,15.40
2023-05-14T23:54:23.582Z,15.32
2023-05-14T23:56:50.780Z,15.32
2023-05-14T23:59:21.299Z,15.35
